sensor_id;sensor_type;location;lat;lon;timestamp;pressure;altitude;pressure_sealevel;temperature;humidity
84283;BME280;74440;52.600;21.450;2024-02-23T00:00:03;99600;;;8.07;65
84283;BME280;74440;52.600;21.450;2024-02-23T00:04:07;99600;;;8.12;65
84283;BME280;74440;52.600;21.450;2024-02-23T00:08:08;99600;;;7.96;65
84283;BME280;74440;52.600;21.450;2024-02-23T00:12:10;99600;;;8.01;65
84283;BME280;74440;52.600;21.450;2024-02-23T00:16:11;99600;;;8.05;65
84283;BME280;74440;52.600;21.450;2024-02-23T00:20:13;99600;;;8.11;65
84283;BME280;74440;52.600;21.450;2024-02-23T00:24:27;99600;;;8.11;66
84283;BME280;74440;52.600;21.450;2024-02-23T00:28:29;99500;;;8.00;66
84283;BME280;74440;52.600;21.450;2024-02-23T00:32:30;99600;;;8.08;65
84283;BME280;74440;52.600;21.450;2024-02-23T00:36:32;99600;;;8.13;65
84283;BME280;74440;52.600;21.450;2024-02-23T00:40:33;99500;;;8.18;65
84283;BME280;74440;52.600;21.450;2024-02-23T00:44:35;99500;;;8.03;66
84283;BME280;74440;52.600;21.450;2024-02-23T00:48:37;99500;;;8.07;66
84283;BME280;74440;52.600;21.450;2024-02-23T00:52:38;99500;;;8.11;66
84283;BME280;74440;52.600;21.450;2024-02-23T00:56:40;99500;;;8.21;65
84283;BME280;74440;52.600;21.450;2024-02-23T01:00:56;99500;;;8.22;66
84283;BME280;74440;52.600;21.450;2024-02-23T01:04:58;99500;;;8.16;66
84283;BME280;74440;52.600;21.450;2024-02-23T01:08:59;99500;;;8.18;66
84283;BME280;74440;52.600;21.450;2024-02-23T01:13:01;99500;;;8.22;66
84283;BME280;74440;52.600;21.450;2024-02-23T01:17:02;99500;;;8.28;66
84283;BME280;74440;52.600;21.450;2024-02-23T01:21:04;99500;;;8.17;66
84283;BME280;74440;52.600;21.450;2024-02-23T01:25:06;99500;;;8.21;66
84283;BME280;74440;52.600;21.450;2024-02-23T01:29:07;99500;;;8.27;66
84283;BME280;74440;52.600;21.450;2024-02-23T01:33:08;99500;;;8.34;66
84283;BME280;74440;52.600;21.450;2024-02-23T01:37:25;99500;;;8.31;66
84283;BME280;74440;52.600;21.450;2024-02-23T01:41:27;99500;;;8.18;66
84283;BME280;74440;52.600;21.450;2024-02-23T01:45:29;99500;;;8.21;66
84283;BME280;74440;52.600;21.450;2024-02-23T01:49:33;99500;;;8.25;66
84283;BME280;74440;52.600;21.450;2024-02-23T01:53:36;99500;;;8.32;66
84283;BME280;74440;52.600;21.450;2024-02-23T01:57:37;99500;;;8.22;66
84283;BME280;74440;52.600;21.450;2024-02-23T02:01:42;99500;;;8.22;66
84283;BME280;74440;52.600;21.450;2024-02-23T02:05:44;99500;;;8.27;66
84283;BME280;74440;52.600;21.450;2024-02-23T02:09:46;99500;;;8.30;66
84283;BME280;74440;52.600;21.450;2024-02-23T02:13:55;99500;;;8.35;67
84283;BME280;74440;52.600;21.450;2024-02-23T02:17:56;99500;;;8.19;67
84283;BME280;74440;52.600;21.450;2024-02-23T02:21:57;99500;;;8.23;67
84283;BME280;74440;52.600;21.450;2024-02-23T02:25:59;99500;;;8.24;67
84283;BME280;74440;52.600;21.450;2024-02-23T02:30:00;99500;;;8.29;67
84283;BME280;74440;52.600;21.450;2024-02-23T02:34:02;99500;;;8.22;67
84283;BME280;74440;52.600;21.450;2024-02-23T02:38:04;99500;;;8.21;67
84283;BME280;74440;52.600;21.450;2024-02-23T02:42:06;99500;;;8.27;67
84283;BME280;74440;52.600;21.450;2024-02-23T02:46:07;99500;;;8.36;67
84283;BME280;74440;52.600;21.450;2024-02-23T02:50:24;99500;;;8.33;67
84283;BME280;74440;52.600;21.450;2024-02-23T02:54:26;99500;;;8.23;68
84283;BME280;74440;52.600;21.450;2024-02-23T02:58:27;99500;;;8.25;68
84283;BME280;74440;52.600;21.450;2024-02-23T03:02:29;99500;;;8.29;68
84283;BME280;74440;52.600;21.450;2024-02-23T03:06:30;99500;;;8.40;67
84283;BME280;74440;52.600;21.450;2024-02-23T03:10:31;99500;;;8.30;68
84283;BME280;74440;52.600;21.450;2024-02-23T03:14:33;99500;;;8.35;68
84283;BME280;74440;52.600;21.450;2024-02-23T03:18:34;99500;;;8.43;67
84283;BME280;74440;52.600;21.450;2024-02-23T03:22:36;99500;;;8.52;67
84283;BME280;74440;52.600;21.450;2024-02-23T03:26:53;99500;;;8.55;67
84283;BME280;74440;52.600;21.450;2024-02-23T03:30:55;99500;;;8.46;67
84283;BME280;74440;52.600;21.450;2024-02-23T03:34:57;99500;;;8.53;67
84283;BME280;74440;52.600;21.450;2024-02-23T03:38:58;99500;;;8.59;67
84283;BME280;74440;52.600;21.450;2024-02-23T03:42:59;99500;;;8.65;68
84283;BME280;74440;52.600;21.450;2024-02-23T03:47:01;99500;;;8.53;68
84283;BME280;74440;52.600;21.450;2024-02-23T03:51:04;99500;;;8.58;68
84283;BME280;74440;52.600;21.450;2024-02-23T03:55:06;99500;;;8.60;69
84283;BME280;74440;52.600;21.450;2024-02-23T03:59:09;99500;;;8.60;69
84283;BME280;74440;52.600;21.450;2024-02-23T04:03:22;99500;;;8.54;71
84283;BME280;74440;52.600;21.450;2024-02-23T04:07:23;99500;;;8.36;71
84283;BME280;74440;52.600;21.450;2024-02-23T04:11:25;99500;;;8.33;71
84283;BME280;74440;52.600;21.450;2024-02-23T04:15:26;99500;;;8.35;72
84283;BME280;74440;52.600;21.450;2024-02-23T04:19:30;99500;;;8.43;72
84283;BME280;74440;52.600;21.450;2024-02-23T04:23:32;99500;;;8.24;73
84283;BME280;74440;52.600;21.450;2024-02-23T04:27:33;99500;;;8.21;74
84283;BME280;74440;52.600;21.450;2024-02-23T04:31:37;99500;;;8.19;74
84283;BME280;74440;52.600;21.450;2024-02-23T04:35:38;99500;;;8.19;75
84283;BME280;74440;52.600;21.450;2024-02-23T04:39:51;99500;;;8.18;76
84283;BME280;74440;52.600;21.450;2024-02-23T04:43:52;99500;;;7.96;77
84283;BME280;74440;52.600;21.450;2024-02-23T04:48:00;99500;;;7.92;77
84283;BME280;74440;52.600;21.450;2024-02-23T04:52:05;99500;;;7.86;78
84283;BME280;74440;52.600;21.450;2024-02-23T04:56:07;99500;;;7.87;78
84283;BME280;74440;52.600;21.450;2024-02-23T05:00:22;99500;;;7.86;79
84283;BME280;74440;52.600;21.450;2024-02-23T05:04:24;99500;;;7.74;79
84283;BME280;74440;52.600;21.450;2024-02-23T05:08:27;99500;;;7.78;79
84283;BME280;74440;52.600;21.450;2024-02-23T05:12:31;99500;;;7.75;79
84283;BME280;74440;52.600;21.450;2024-02-23T05:16:32;99600;;;7.82;80
84283;BME280;74440;52.600;21.450;2024-02-23T05:20:33;99600;;;7.64;80
84283;BME280;74440;52.600;21.450;2024-02-23T05:24:35;99600;;;7.63;80
84283;BME280;74440;52.600;21.450;2024-02-23T05:28:36;99600;;;7.71;80
84283;BME280;74440;52.600;21.450;2024-02-23T05:32:39;99600;;;7.78;80
84283;BME280;74440;52.600;21.450;2024-02-23T05:36:51;99600;;;7.82;81
84283;BME280;74440;52.600;21.450;2024-02-23T05:40:53;99600;;;7.67;81
84283;BME280;74440;52.600;21.450;2024-02-23T05:44:54;99600;;;7.68;81
84283;BME280;74440;52.600;21.450;2024-02-23T05:48:57;99600;;;7.71;81
84283;BME280;74440;52.600;21.450;2024-02-23T05:52:58;99600;;;7.79;81
84283;BME280;74440;52.600;21.450;2024-02-23T05:57:00;99600;;;7.63;81
84283;BME280;74440;52.600;21.450;2024-02-23T06:01:02;99600;;;7.67;81
84283;BME280;74440;52.600;21.450;2024-02-23T06:05:05;99600;;;7.75;81
84283;BME280;74440;52.600;21.450;2024-02-23T06:09:08;99600;;;7.81;81
84283;BME280;74440;52.600;21.450;2024-02-23T06:13:20;99600;;;7.84;82
84283;BME280;74440;52.600;21.450;2024-02-23T06:17:22;99600;;;7.72;82
84283;BME280;74440;52.600;21.450;2024-02-23T06:21:25;99600;;;7.76;82
84283;BME280;74440;52.600;21.450;2024-02-23T06:25:26;99600;;;7.81;82
84283;BME280;74440;52.600;21.450;2024-02-23T06:29:27;99600;;;7.89;82
84283;BME280;74440;52.600;21.450;2024-02-23T06:33:30;99600;;;7.73;82
84283;BME280;74440;52.600;21.450;2024-02-23T06:37:32;99600;;;7.80;82
84283;BME280;74440;52.600;21.450;2024-02-23T06:41:34;99600;;;7.85;82
84283;BME280;74440;52.600;21.450;2024-02-23T06:45:35;99600;;;7.91;82
84283;BME280;74440;52.600;21.450;2024-02-23T06:49:50;99600;;;7.91;83
84283;BME280;74440;52.600;21.450;2024-02-23T06:53:51;99600;;;7.80;83
84283;BME280;74440;52.600;21.450;2024-02-23T06:57:53;99700;;;7.82;83
84283;BME280;74440;52.600;21.450;2024-02-23T07:01:54;99700;;;7.85;83
84283;BME280;74440;52.600;21.450;2024-02-23T07:05:56;99700;;;7.94;83
84283;BME280;74440;52.600;21.450;2024-02-23T07:09:57;99700;;;7.82;83
84283;BME280;74440;52.600;21.450;2024-02-23T07:13:59;99700;;;7.86;83
84283;BME280;74440;52.600;21.450;2024-02-23T07:18:00;99700;;;7.92;83
84283;BME280;74440;52.600;21.450;2024-02-23T07:22:02;99700;;;8.01;83
84283;BME280;74440;52.600;21.450;2024-02-23T07:26:19;99700;;;8.06;83
84283;BME280;74440;52.600;21.450;2024-02-23T07:30:23;99700;;;7.94;83
84283;BME280;74440;52.600;21.450;2024-02-23T07:34:24;99700;;;7.97;83
84283;BME280;74440;52.600;21.450;2024-02-23T07:38:25;99700;;;8.02;83
84283;BME280;74440;52.600;21.450;2024-02-23T07:42:27;99700;;;8.12;83
84283;BME280;74440;52.600;21.450;2024-02-23T07:46:29;99700;;;7.96;84
84283;BME280;74440;52.600;21.450;2024-02-23T07:50:30;99700;;;8.00;84
84283;BME280;74440;52.600;21.450;2024-02-23T07:54:31;99700;;;8.07;84
84283;BME280;74440;52.600;21.450;2024-02-23T07:58:33;99700;;;8.13;84
84283;BME280;74440;52.600;21.450;2024-02-23T08:02:48;99700;;;8.16;84
84283;BME280;74440;52.600;21.450;2024-02-23T08:06:50;99700;;;8.04;84
84283;BME280;74440;52.600;21.450;2024-02-23T08:10:52;99800;;;8.12;84
84283;BME280;74440;52.600;21.450;2024-02-23T08:14:53;99800;;;8.20;83
84283;BME280;74440;52.600;21.450;2024-02-23T08:18:54;99800;;;8.26;83
84283;BME280;74440;52.600;21.450;2024-02-23T08:22:56;99800;;;8.13;84
84283;BME280;74440;52.600;21.450;2024-02-23T08:26:57;99800;;;8.19;84
84283;BME280;74440;52.600;21.450;2024-02-23T08:30:59;99800;;;8.25;83
84283;BME280;74440;52.600;21.450;2024-02-23T08:35:00;99800;;;8.29;83
84283;BME280;74440;52.600;21.450;2024-02-23T08:39:17;99800;;;8.32;84
84283;BME280;74440;52.600;21.450;2024-02-23T08:43:18;99800;;;8.18;84
84283;BME280;74440;52.600;21.450;2024-02-23T08:47:21;99800;;;8.21;84
84283;BME280;74440;52.600;21.450;2024-02-23T08:51:22;99800;;;8.29;84
84283;BME280;74440;52.600;21.450;2024-02-23T08:55:23;99800;;;8.37;84
84283;BME280;74440;52.600;21.450;2024-02-23T08:59:25;99800;;;8.24;84
84283;BME280;74440;52.600;21.450;2024-02-23T09:03:26;99800;;;8.33;84
84283;BME280;74440;52.600;21.450;2024-02-23T09:07:27;99800;;;8.42;84
84283;BME280;74440;52.600;21.450;2024-02-23T09:11:29;99800;;;8.51;84
84283;BME280;74440;52.600;21.450;2024-02-23T09:15:46;99800;;;8.56;84
84283;BME280;74440;52.600;21.450;2024-02-23T09:19:47;99800;;;8.45;84
84283;BME280;74440;52.600;21.450;2024-02-23T09:23:49;99800;;;8.53;84
84283;BME280;74440;52.600;21.450;2024-02-23T09:27:50;99800;;;8.75;83
84283;BME280;74440;52.600;21.450;2024-02-23T09:31:51;99800;;;8.92;83
84283;BME280;74440;52.600;21.450;2024-02-23T09:35:53;99800;;;8.90;83
84283;BME280;74440;52.600;21.450;2024-02-23T09:39:55;99800;;;9.04;83
84283;BME280;74440;52.600;21.450;2024-02-23T09:43:58;99900;;;9.12;83
84283;BME280;74440;52.600;21.450;2024-02-23T09:48:00;99900;;;9.24;82
84283;BME280;74440;52.600;21.450;2024-02-23T09:52:15;99900;;;9.36;82
84283;BME280;74440;52.600;21.450;2024-02-23T09:56:17;99900;;;9.36;82
84283;BME280;74440;52.600;21.450;2024-02-23T10:00:21;99900;;;9.54;82
84283;BME280;74440;52.600;21.450;2024-02-23T10:04:26;99900;;;9.69;81
84283;BME280;74440;52.600;21.450;2024-02-23T10:08:30;99900;;;9.92;81
84283;BME280;74440;52.600;21.450;2024-02-23T10:12:46;99900;;;9.89;81
84283;BME280;74440;52.600;21.450;2024-02-23T10:16:48;99900;;;9.74;81
84283;BME280;74440;52.600;21.450;2024-02-23T10:20:55;99900;;;9.72;81
84283;BME280;74440;52.600;21.450;2024-02-23T10:24:59;99900;;;9.75;81
84283;BME280;74440;52.600;21.450;2024-02-23T10:29:00;99900;;;9.83;81
84283;BME280;74440;52.600;21.450;2024-02-23T10:33:22;99900;;;9.87;81
84283;BME280;74440;52.600;21.450;2024-02-23T10:37:25;99900;;;9.79;81
84283;BME280;74440;52.600;21.450;2024-02-23T10:41:27;99900;;;9.81;81
84283;BME280;74440;52.600;21.450;2024-02-23T10:45:33;99900;;;9.86;81
84283;BME280;74440;52.600;21.450;2024-02-23T10:49:38;99900;;;9.97;81
84283;BME280;74440;52.600;21.450;2024-02-23T10:53:49;99900;;;10.01;81
84283;BME280;74440;52.600;21.450;2024-02-23T10:57:51;99900;;;9.87;81
84283;BME280;74440;52.600;21.450;2024-02-23T11:01:55;99900;;;10.00;81
84283;BME280;74440;52.600;21.450;2024-02-23T11:06:00;99900;;;10.11;81
84283;BME280;74440;52.600;21.450;2024-02-23T11:10:05;99900;;;10.17;80
84283;BME280;74440;52.600;21.450;2024-02-23T11:18:38;99900;;;10.02;81
84283;BME280;74440;52.600;21.450;2024-02-23T11:22:40;99900;;;10.10;81
84283;BME280;74440;52.600;21.450;2024-02-23T11:26:42;100000;;;10.19;81
84283;BME280;74440;52.600;21.450;2024-02-23T11:30:44;100000;;;10.26;81
84283;BME280;74440;52.600;21.450;2024-02-23T11:34:56;100000;;;10.22;81
84283;BME280;74440;52.600;21.450;2024-02-23T11:38:59;100000;;;10.07;81
84283;BME280;74440;52.600;21.450;2024-02-23T11:43:01;100000;;;10.14;81
84283;BME280;74440;52.600;21.450;2024-02-23T11:47:03;100000;;;10.23;81
84283;BME280;74440;52.600;21.450;2024-02-23T11:51:04;100000;;;10.34;80
84283;BME280;74440;52.600;21.450;2024-02-23T11:55:06;100000;;;10.22;81
84283;BME280;74440;52.600;21.450;2024-02-23T11:59:10;100000;;;10.26;80
84283;BME280;74440;52.600;21.450;2024-02-23T12:03:11;100000;;;10.31;80
84283;BME280;74440;52.600;21.450;2024-02-23T12:07:13;100000;;;10.39;80
84283;BME280;74440;52.600;21.450;2024-02-23T12:11:24;100000;;;10.42;80
84283;BME280;74440;52.600;21.450;2024-02-23T12:15:26;100000;;;10.37;80
84283;BME280;74440;52.600;21.450;2024-02-23T12:19:29;100000;;;10.44;80
84283;BME280;74440;52.600;21.450;2024-02-23T12:27:44;100000;;;10.55;80
84283;BME280;74440;52.600;21.450;2024-02-23T12:36:08;100000;;;10.56;80
84283;BME280;74440;52.600;21.450;2024-02-23T12:40:11;100000;;;10.59;80
84283;BME280;74440;52.600;21.450;2024-02-23T12:44:13;100100;;;10.59;80
84283;BME280;74440;52.600;21.450;2024-02-23T12:48:15;100100;;;10.64;80
84283;BME280;74440;52.600;21.450;2024-02-23T12:52:26;100100;;;10.69;80
84283;BME280;74440;52.600;21.450;2024-02-23T12:56:27;100100;;;10.71;80
84283;BME280;74440;52.600;21.450;2024-02-23T13:00:29;100100;;;10.85;80
84283;BME280;74440;52.600;21.450;2024-02-23T13:06:32;100100;;;10.76;80
84283;BME280;74440;52.600;21.450;2024-02-23T13:10:34;100100;;;10.73;80
84283;BME280;74440;52.600;21.450;2024-02-23T13:14:36;100100;;;10.75;80
84283;BME280;74440;52.600;21.450;2024-02-23T13:18:37;100100;;;10.84;80
84283;BME280;74440;52.600;21.450;2024-02-23T13:22:38;100100;;;10.75;80
84283;BME280;74440;52.600;21.450;2024-02-23T13:26:40;100100;;;10.83;80
84283;BME280;74440;52.600;21.450;2024-02-23T13:30:41;100100;;;10.84;79
84283;BME280;74440;52.600;21.450;2024-02-23T13:34:43;100100;;;10.90;80
84283;BME280;74440;52.600;21.450;2024-02-23T13:38:44;100100;;;10.83;80
84283;BME280;74440;52.600;21.450;2024-02-23T13:42:45;100100;;;10.92;80
84283;BME280;74440;52.600;21.450;2024-02-23T13:46:50;100100;;;10.92;79
84283;BME280;74440;52.600;21.450;2024-02-23T13:50:53;100100;;;10.95;79
84283;BME280;74440;52.600;21.450;2024-02-23T13:55:00;100100;;;10.92;80
84283;BME280;74440;52.600;21.450;2024-02-23T13:59:01;100100;;;10.77;80
84283;BME280;74440;52.600;21.450;2024-02-23T14:03:03;100100;;;10.75;80
84283;BME280;74440;52.600;21.450;2024-02-23T14:07:05;100100;;;10.74;80
84283;BME280;74440;52.600;21.450;2024-02-23T14:11:06;100100;;;10.74;80
84283;BME280;74440;52.600;21.450;2024-02-23T14:15:08;100100;;;10.53;80
84283;BME280;74440;52.600;21.450;2024-02-23T14:19:11;100100;;;10.50;80
84283;BME280;74440;52.600;21.450;2024-02-23T14:23:12;100100;;;10.52;80
84283;BME280;74440;52.600;21.450;2024-02-23T14:27:14;100100;;;10.53;80
84283;BME280;74440;52.600;21.450;2024-02-23T14:31:29;100100;;;10.55;81
84283;BME280;74440;52.600;21.450;2024-02-23T14:35:30;100100;;;10.43;81
84283;BME280;74440;52.600;21.450;2024-02-23T14:39:31;100200;;;10.46;81
84283;BME280;74440;52.600;21.450;2024-02-23T14:43:34;100200;;;10.48;81
84283;BME280;74440;52.600;21.450;2024-02-23T14:47:36;100200;;;10.51;81
84283;BME280;74440;52.600;21.450;2024-02-23T14:51:37;100200;;;10.32;81
84283;BME280;74440;52.600;21.450;2024-02-23T14:55:40;100200;;;10.30;81
84283;BME280;74440;52.600;21.450;2024-02-23T14:59:41;100200;;;10.31;81
84283;BME280;74440;52.600;21.450;2024-02-23T15:03:47;100200;;;10.33;81
84283;BME280;74440;52.600;21.450;2024-02-23T15:07:58;100200;;;10.34;82
84283;BME280;74440;52.600;21.450;2024-02-23T15:11:59;100200;;;10.19;82
84283;BME280;74440;52.600;21.450;2024-02-23T15:16:03;100200;;;10.22;82
84283;BME280;74440;52.600;21.450;2024-02-23T15:20:06;100200;;;10.26;82
84283;BME280;74440;52.600;21.450;2024-02-23T15:24:07;100200;;;10.31;82
84283;BME280;74440;52.600;21.450;2024-02-23T15:28:09;100200;;;10.15;82
84283;BME280;74440;52.600;21.450;2024-02-23T15:32:10;100200;;;10.16;82
84283;BME280;74440;52.600;21.450;2024-02-23T15:36:11;100200;;;10.20;82
84283;BME280;74440;52.600;21.450;2024-02-23T15:40:16;100200;;;10.26;82
84283;BME280;74440;52.600;21.450;2024-02-23T15:44:27;100200;;;10.26;82
84283;BME280;74440;52.600;21.450;2024-02-23T15:48:28;100200;;;10.08;82
84283;BME280;74440;52.600;21.450;2024-02-23T15:52:30;100200;;;10.10;82
84283;BME280;74440;52.600;21.450;2024-02-23T15:56:32;100200;;;10.11;82
84283;BME280;74440;52.600;21.450;2024-02-23T16:00:35;100200;;;10.14;82
84283;BME280;74440;52.600;21.450;2024-02-23T16:04:36;100300;;;9.93;83
84283;BME280;74440;52.600;21.450;2024-02-23T16:08:44;100300;;;9.93;83
84283;BME280;74440;52.600;21.450;2024-02-23T16:12:50;100300;;;9.95;83
84283;BME280;74440;52.600;21.450;2024-02-23T16:16:52;100300;;;9.99;83
84283;BME280;74440;52.600;21.450;2024-02-23T16:20:56;100300;;;10.00;83
84283;BME280;74440;52.600;21.450;2024-02-23T16:24:57;100300;;;9.83;83
84283;BME280;74440;52.600;21.450;2024-02-23T16:28:58;100300;;;9.86;83
84283;BME280;74440;52.600;21.450;2024-02-23T16:33:00;100300;;;9.90;83
84283;BME280;74440;52.600;21.450;2024-02-23T16:37:02;100300;;;9.96;83
84283;BME280;74440;52.600;21.450;2024-02-23T16:41:03;100300;;;9.78;83
84283;BME280;74440;52.600;21.450;2024-02-23T16:45:05;100300;;;9.80;83
84283;BME280;74440;52.600;21.450;2024-02-23T16:49:06;100300;;;9.83;83
84283;BME280;74440;52.600;21.450;2024-02-23T16:53:10;100300;;;9.87;83
84283;BME280;74440;52.600;21.450;2024-02-23T16:57:25;100300;;;9.84;83
84283;BME280;74440;52.600;21.450;2024-02-23T17:01:26;100300;;;9.66;83
84283;BME280;74440;52.600;21.450;2024-02-23T17:05:28;100300;;;9.71;83
84283;BME280;74440;52.600;21.450;2024-02-23T17:09:30;100300;;;9.74;83
84283;BME280;74440;52.600;21.450;2024-02-23T17:13:31;100300;;;9.76;83
84283;BME280;74440;52.600;21.450;2024-02-23T17:17:33;100300;;;9.53;83
84283;BME280;74440;52.600;21.450;2024-02-23T17:21:35;100300;;;9.55;83
84283;BME280;74440;52.600;21.450;2024-02-23T17:25:36;100300;;;9.55;83
84283;BME280;74440;52.600;21.450;2024-02-23T17:29:38;100300;;;9.61;83
84283;BME280;74440;52.600;21.450;2024-02-23T17:33:54;100300;;;9.62;84
84283;BME280;74440;52.600;21.450;2024-02-23T17:37:55;100300;;;9.49;84
84283;BME280;74440;52.600;21.450;2024-02-23T17:41:56;100300;;;9.53;84
84283;BME280;74440;52.600;21.450;2024-02-23T17:45:59;100300;;;9.59;84
84283;BME280;74440;52.600;21.450;2024-02-23T17:50:01;100300;;;9.65;84
84283;BME280;74440;52.600;21.450;2024-02-23T17:54:03;100300;;;9.46;84
84283;BME280;74440;52.600;21.450;2024-02-23T17:58:04;100300;;;9.51;84
84283;BME280;74440;52.600;21.450;2024-02-23T18:02:07;100300;;;9.51;84
84283;BME280;74440;52.600;21.450;2024-02-23T18:06:08;100300;;;9.55;84
84283;BME280;74440;52.600;21.450;2024-02-23T18:10:23;100300;;;9.50;84
84283;BME280;74440;52.600;21.450;2024-02-23T18:14:28;100300;;;9.32;84
84283;BME280;74440;52.600;21.450;2024-02-23T18:18:31;100300;;;9.30;84
84283;BME280;74440;52.600;21.450;2024-02-23T18:22:32;100300;;;9.30;84
84283;BME280;74440;52.600;21.450;2024-02-23T18:26:34;100300;;;9.32;84
84283;BME280;74440;52.600;21.450;2024-02-23T18:30:35;100300;;;9.12;85
84283;BME280;74440;52.600;21.450;2024-02-23T18:34:37;100300;;;9.12;85
84283;BME280;74440;52.600;21.450;2024-02-23T18:38:38;100300;;;9.18;84
84283;BME280;74440;52.600;21.450;2024-02-23T18:42:40;100400;;;9.23;84
84283;BME280;74440;52.600;21.450;2024-02-23T18:46:52;100300;;;9.29;85
84283;BME280;74440;52.600;21.450;2024-02-23T18:50:54;100400;;;9.16;85
84283;BME280;74440;52.600;21.450;2024-02-23T18:54:55;100400;;;9.21;84
84283;BME280;74440;52.600;21.450;2024-02-23T18:58:59;100400;;;9.26;84
84283;BME280;74440;52.600;21.450;2024-02-23T19:03:01;100400;;;9.32;84
84283;BME280;74440;52.600;21.450;2024-02-23T19:07:02;100400;;;9.12;84
84283;BME280;74440;52.600;21.450;2024-02-23T19:11:04;100400;;;9.13;84
84283;BME280;74440;52.600;21.450;2024-02-23T19:15:06;100400;;;9.19;84
84283;BME280;74440;52.600;21.450;2024-02-23T19:19:07;100300;;;9.22;84
84283;BME280;74440;52.600;21.450;2024-02-23T19:23:21;100300;;;9.23;84
84283;BME280;74440;52.600;21.450;2024-02-23T19:27:23;100400;;;9.06;84
84283;BME280;74440;52.600;21.450;2024-02-23T19:31:24;100400;;;9.07;84
84283;BME280;74440;52.600;21.450;2024-02-23T19:35:27;100400;;;9.07;84
84283;BME280;74440;52.600;21.450;2024-02-23T19:39:28;100400;;;9.13;84
84283;BME280;74440;52.600;21.450;2024-02-23T19:43:53;100400;;;9.07;85
84283;BME280;74440;52.600;21.450;2024-02-23T19:47:55;100400;;;8.90;85
84283;BME280;74440;52.600;21.450;2024-02-23T19:51:57;100400;;;8.91;85
84283;BME280;74440;52.600;21.450;2024-02-23T19:55:59;100400;;;8.91;85
84283;BME280;74440;52.600;21.450;2024-02-23T20:00:00;100400;;;8.97;85
84283;BME280;74440;52.600;21.450;2024-02-23T20:04:04;100400;;;8.82;85
84283;BME280;74440;52.600;21.450;2024-02-23T20:08:06;100400;;;8.84;85
84283;BME280;74440;52.600;21.450;2024-02-23T20:12:09;100400;;;8.83;85
84283;BME280;74440;52.600;21.450;2024-02-23T20:16:11;100400;;;8.84;85
84283;BME280;74440;52.600;21.450;2024-02-23T20:20:22;100400;;;8.80;85
84283;BME280;74440;52.600;21.450;2024-02-23T20:24:24;100400;;;8.61;85
84283;BME280;74440;52.600;21.450;2024-02-23T20:28:28;100400;;;8.59;85
84283;BME280;74440;52.600;21.450;2024-02-23T20:32:30;100400;;;8.62;85
84283;BME280;74440;52.600;21.450;2024-02-23T20:36:31;100400;;;8.61;84
84283;BME280;74440;52.600;21.450;2024-02-23T20:40:32;100400;;;8.42;84
84283;BME280;74440;52.600;21.450;2024-02-23T20:44:34;100400;;;8.46;84
84283;BME280;74440;52.600;21.450;2024-02-23T20:48:35;100400;;;8.47;83
84283;BME280;74440;52.600;21.450;2024-02-23T20:52:37;100400;;;8.49;83
84283;BME280;74440;52.600;21.450;2024-02-23T20:56:51;100400;;;8.45;83
84283;BME280;74440;52.600;21.450;2024-02-23T21:00:54;100400;;;8.32;83
84283;BME280;74440;52.600;21.450;2024-02-23T21:04:55;100400;;;8.34;83
84283;BME280;74440;52.600;21.450;2024-02-23T21:08:56;100400;;;8.41;83
84283;BME280;74440;52.600;21.450;2024-02-23T21:12:58;100400;;;8.47;83
84283;BME280;74440;52.600;21.450;2024-02-23T21:16:59;100400;;;8.32;83
84283;BME280;74440;52.600;21.450;2024-02-23T21:21:01;100400;;;8.37;83
84283;BME280;74440;52.600;21.450;2024-02-23T21:25:02;100400;;;8.42;83
84283;BME280;74440;52.600;21.450;2024-02-23T21:29:04;100400;;;8.45;83
84283;BME280;74440;52.600;21.450;2024-02-23T21:33:24;100400;;;8.43;83
84283;BME280;74440;52.600;21.450;2024-02-23T21:37:25;100400;;;8.25;83
84283;BME280;74440;52.600;21.450;2024-02-23T21:41:27;100400;;;8.25;83
84283;BME280;74440;52.600;21.450;2024-02-23T21:45:28;100400;;;8.30;83
84283;BME280;74440;52.600;21.450;2024-02-23T21:49:30;100400;;;8.38;83
84283;BME280;74440;52.600;21.450;2024-02-23T21:53:31;100400;;;8.22;84
84283;BME280;74440;52.600;21.450;2024-02-23T21:57:33;100400;;;8.22;83
84283;BME280;74440;52.600;21.450;2024-02-23T22:01:34;100400;;;8.26;83
84283;BME280;74440;52.600;21.450;2024-02-23T22:05:36;100400;;;8.32;83
84283;BME280;74440;52.600;21.450;2024-02-23T22:09:49;100400;;;8.32;84
84283;BME280;74440;52.600;21.450;2024-02-23T22:13:56;100400;;;8.16;84
84283;BME280;74440;52.600;21.450;2024-02-23T22:17:58;100400;;;8.18;84
84283;BME280;74440;52.600;21.450;2024-02-23T22:21:59;100400;;;8.24;84
84283;BME280;74440;52.600;21.450;2024-02-23T22:26:00;100400;;;8.31;84
84283;BME280;74440;52.600;21.450;2024-02-23T22:30:03;100400;;;8.15;84
84283;BME280;74440;52.600;21.450;2024-02-23T22:34:08;100400;;;8.19;84
84283;BME280;74440;52.600;21.450;2024-02-23T22:38:10;100400;;;8.23;84
84283;BME280;74440;52.600;21.450;2024-02-23T22:42:11;100400;;;8.30;84
84283;BME280;74440;52.600;21.450;2024-02-23T22:46:23;100400;;;8.32;84
84283;BME280;74440;52.600;21.450;2024-02-23T22:50:24;100400;;;8.17;84
84283;BME280;74440;52.600;21.450;2024-02-23T22:54:26;100400;;;8.20;84
84283;BME280;74440;52.600;21.450;2024-02-23T22:58:27;100400;;;8.29;84
84283;BME280;74440;52.600;21.450;2024-02-23T23:02:28;100400;;;8.40;84
84283;BME280;74440;52.600;21.450;2024-02-23T23:06:31;100400;;;8.25;84
84283;BME280;74440;52.600;21.450;2024-02-23T23:10:32;100400;;;8.29;84
84283;BME280;74440;52.600;21.450;2024-02-23T23:14:34;100400;;;8.31;84
84283;BME280;74440;52.600;21.450;2024-02-23T23:18:35;100400;;;8.37;84